Details From TIST - St Thomas - Cyril E King
To TNCC - Curacao Hato
Flight Number -
Tags Generated
Created
Modified
Stats Distance 435 nm / 806 km
Max Altitude 0 ft / 0 m
Waypoints 3
Social Downloads 1
Likes 0
Share VATSIM

Download

Looking for another format? Having issues loading an existing format? Contact us
Advertisement - Login to hide

Notes

Generated

Route

TIST HTO12 TNCC

ID Type Via Altitude Latitude Longitude Leg Dist Tot Dist Heading (true) Name
O TIST APT - 0 ft / 0 m 18.33687˚ -64.98343˚ - 0 nm - -
HTO12 FIX - 0 ft / 0 m 12.19383˚ -68.97506˚ 435 nm 435 nm 213° / 212° -
O TNCC APT - 0 ft / 0 m 12.19211˚ -68.97514˚ 0 nm 435 nm 183° / 183° -

Altitude Profile

Advertisement - Login to hide

Weather


0- 5 10 15 20 25 30 35+ Temperature / ° C

Clouds and Precipitation
Forecast for 2017-12-19 00:00 UTC. Updated 2 hours ago

Ground ~20,000 ft ~40,000 ft Winds

TIST

Details ICAO TIST (STT)
Name St Thomas - Cyril E King
Region USA (U.S. Virgin Islands)
Timezone Unknown (UTC+0.0)
Stats Elevation 23 ft / 7 m (AMSL)
Location 18.337300° -64.973344°
Runways 1
Magnetic Variation 13.636° W

METAR

TIST 182153Z AUTO 06011KT 10SM CLR 27/23 A3003

Decode

TAF

TAF TIST 181720Z 1818/1918 07012G20KT P6SM VCSH SCT030 SCT060 FM182300 05009KT P6SM VCSH FEW022 SCT050 FM191300 07012G19KT P6SM SCT025

Decode

Departure Runways

ID Width Length Bearing (true) Bearing (mag) Surface Threshold Offset Overrun Length
10 151 ft / 46 m 6,992 ft / 2,131 m 87.44° 101.08° Asphalt 0 ft / 0 m 200 ft / 61 m
28 151 ft / 46 m 6,992 ft / 2,131 m 267.44° 281.08° Asphalt 2,300 ft / 701 m 200 ft / 61 m

TNCC

Details ICAO TNCC (CUR)
Name Curacao Hato
Region Caribbean Netherlands, Aruba, Curaçao, Sint Maarten
Timezone Unknown (UTC+0.0)
Stats Elevation 29 ft / 9 m (AMSL)
Location 12.188853° -68.959803°
Runways 1
Magnetic Variation 11.332° W

METAR

TNCC 182200Z 08012KT 9999 FEW020 27/23 Q1013 NOSIG

Decode

TAF

Not found

Destination Runways

ID Width Length Bearing (true) Bearing (mag) Surface Threshold Offset Overrun Length
11 197 ft / 60 m 11,197 ft / 3,413 m 102.24° 113.57° Asphalt 300 ft / 91 m 0 ft / 0 m
29 197 ft / 60 m 11,197 ft / 3,413 m 282.24° 293.57° Asphalt 300 ft / 91 m 200 ft / 61 m

Approach Navaids

Runway Type Ident Frequency Range Bearing (true) Bearing (mag) Slope Elevation
11 Localiser IATO 111.90 MHz 18 nm / 33 km 102.23° 113.56° - 29 ft / 9 m (AMSL)
11 Glidescope IATO 111.90 MHz 10 nm / 19 km 102.24° 113.57° 3.00° 29 ft / 9 m (AMSL)
11 DME IATO 111.90 MHz 18 nm / 33 km - - - 29 ft / 9 m (AMSL)